Impacts METAR Board INFO
IDs:

KLAS - Las Vegas/McCarran I, NV, US

Updated at: 0545 UTC 18 Jan 2018
Potential Impact None Slight Moderate High
Time17/17Z 17/18Z 17/19Z 17/20Z 17/21Z 17/22Z 17/23Z 18/00Z 18/01Z 18/02Z 18/03Z 18/04Z 18/05Z
VIS10 10 10 10 10 10 10 10 10 10 10 10 10
CIG240 -- -- -- -- 220 220 220 220 220 220 220 220
CoverBKNSCTSCTSCTSCTBKNBKNBKNBKNBKNBKNBKNBKN
FltCatVFRVFRVFRVFRVFRVFRVFRVFRVFRVFRVFRVFRVFR
WX--------------------------
WDir01000600000200200220230
WSpd0 3 0 0 4 3 0 0 0 3 3 3 4
WGst-- -- -- -- -- -- -- -- -- -- -- -- --
Raw hourly METARs
KLAS 171656Z 00000KT 10SM BKN240 12/03 A3032 RMK AO2 SLP262 T01220028
KLAS 171756Z 01003KT 10SM SCT240 14/02 A3033 RMK AO2 SLP265 T01440022 10144 20078 51019
KLAS 171856Z 00000KT 10SM SCT250 16/02 A3031 RMK AO2 SLP258 T01560017
KLAS 171956Z 00000KT 10SM SCT250 17/01 A3026 RMK AO2 SLP240 T01720006
KLAS 172056Z 06004KT 10SM SCT250 18/01 A3024 RMK AO2 SLP232 T01830011 58028
KLAS 172156Z VRB03KT 10SM BKN220 19/01 A3022 RMK AO2 SLP227 T01890006
KLAS 172256Z 00000KT 10SM BKN220 18/01 A3023 RMK AO2 SLP230 T01830006
KLAS 172356Z 00000KT 10SM BKN220 19/01 A3024 RMK AO2 SLP232 T01890011 10189 20144 55000
KLAS 180056Z 00000KT 10SM FEW180 BKN220 18/02 A3023 RMK AO2 SLP232 T01780017
KLAS 180156Z 20003KT 10SM FEW180 BKN220 17/02 A3024 RMK AO2 SLP234 T01720022
KLAS 180256Z 20003KT 10SM FEW180 BKN220 15/03 A3024 RMK AO2 SLP236 T01500033 53001
KLAS 180356Z 22003KT 10SM FEW180 BKN220 13/04 A3023 RMK AO2 SLP233 T01330039
KLAS 180456Z 23004KT 10SM FEW180 BKN220 13/04 A3023 RMK AO2 SLP233 T01280039